Time;durP1;ratioP1;P1;durP2;ratioP2;P2;SDS_P1;SDS_P2;PMS_P1;PMS_P2;Temp;Humidity;BMP_temperature;BMP_pressure;BME280_temperature;BME280_humidity;BME280_pressure;Samples;Min_cycle;Max_cycle;Signal;HPM_P1;HPM_P2
2022/06/16 00:01:01;;;;;;;;;;;28.70;37.70;;;;;;5097502;28;1039;-39
2022/06/16 00:03:28;;;;;;;;;;;28.70;37.80;;;;;;5097763;28;1014;-38
2022/06/16 00:05:56;;;;;;;;;;;28.70;37.90;;;;;;5098423;28;928;-38
2022/06/16 00:08:23;;;;;;;;;;;28.70;37.80;;;;;;5098392;28;987;-38
2022/06/16 00:13:39;;;;;;;;;;;28.80;37.80;;;;;;5082602;28;1652;-39
2022/06/16 00:16:07;;;;;;;;;;;28.80;37.80;;;;;;5098549;28;924;-39
2022/06/16 00:18:33;;;;;;;;;;;28.80;37.80;;;;;;5098497;28;1902;-38
2022/06/16 00:21:02;;;;;;;;;;;28.80;37.70;;;;;;5098348;28;943;-38
2022/06/16 00:23:28;;;;;;;;;;;28.80;37.80;;;;;;5098427;28;877;-39
2022/06/16 00:25:55;;;;;;;;;;;28.80;38.00;;;;;;5098372;28;1016;-39
2022/06/16 00:28:22;;;;;;;;;;;28.70;37.90;;;;;;5097789;28;1125;-39
2022/06/16 00:30:49;;;;;;;;;;;28.80;37.80;;;;;;5098242;28;877;-38
2022/06/16 00:33:15;;;;;;;;;;;28.70;37.80;;;;;;5097361;28;1224;-39
2022/06/16 00:35:42;;;;;;;;;;;28.70;37.90;;;;;;5097556;28;944;-39
2022/06/16 00:38:10;;;;;;;;;;;28.80;37.90;;;;;;5097949;28;1913;-38
2022/06/16 00:40:37;;;;;;;;;;;28.80;37.90;;;;;;5097761;28;1220;-38
2022/06/16 00:43:04;;;;;;;;;;;28.80;37.80;;;;;;5098518;28;983;-39
2022/06/16 00:45:45;;;;;;;;;;;28.80;37.80;;;;;;5098475;28;942;-38
2022/06/16 00:48:13;;;;;;;;;;;28.80;37.90;;;;;;5098616;28;1058;-37
2022/06/16 00:50:41;;;;;;;;;;;28.80;38.00;;;;;;5097750;28;996;-38
2022/06/16 00:53:08;;;;;;;;;;;28.80;37.90;;;;;;5097990;28;986;-37
2022/06/16 00:55:37;;;;;;;;;;;28.90;37.90;;;;;;5097638;28;1024;-37
2022/06/16 00:58:04;;;;;;;;;;;28.90;37.70;;;;;;5097769;28;1910;-37
2022/06/16 01:00:31;;;;;;;;;;;28.90;37.70;;;;;;5098000;28;1087;-39
2022/06/16 01:02:58;;;;;;;;;;;28.90;37.80;;;;;;5098011;28;921;-38
2022/06/16 01:05:24;;;;;;;;;;;28.90;37.80;;;;;;5098405;28;1028;-37
2022/06/16 01:07:52;;;;;;;;;;;28.90;37.80;;;;;;5098247;28;1317;-38
2022/06/16 01:10:19;;;;;;;;;;;28.90;37.90;;;;;;5097830;28;1023;-37
2022/06/16 01:15:46;;;;;;;;;;;28.80;37.90;;;;;;5099770;28;753;-37
2022/06/16 01:18:16;;;;;;;;;;;28.80;37.90;;;;;;5102005;28;1971;-38
2022/06/16 01:20:47;;;;;;;;;;;28.80;37.90;;;;;;5101711;28;1137;-38
2022/06/16 01:23:35;;;;;;;;;;;28.80;37.90;;;;;;5101870;28;999;-38
2022/06/16 01:26:07;;;;;;;;;;;28.80;38.00;;;;;;5101646;28;956;-38
2022/06/16 01:28:35;;;;;;;;;;;28.70;38.00;;;;;;5101795;28;900;-38
2022/06/16 01:31:06;;;;;;;;;;;28.80;38.00;;;;;;5101849;28;1407;-38
2022/06/16 01:33:39;;;;;;;;;;;28.80;38.20;;;;;;5101714;28;1060;-37
2022/06/16 01:36:09;;;;;;;;;;;28.70;38.00;;;;;;5101846;28;1004;-37
2022/06/16 01:38:41;;;;;;;;;;;28.70;38.10;;;;;;5101554;28;1906;-39
2022/06/16 01:41:11;;;;;;;;;;;28.70;38.10;;;;;;5101329;28;988;-39
2022/06/16 01:43:40;;;;;;;;;;;28.80;38.10;;;;;;5101553;28;1019;-39
2022/06/16 01:46:11;;;;;;;;;;;28.80;38.10;;;;;;5101869;28;865;-39
2022/06/16 01:48:41;;;;;;;;;;;28.80;38.10;;;;;;5100989;28;1142;-37
2022/06/16 01:51:11;;;;;;;;;;;28.80;38.10;;;;;;5101197;28;1884;-39
2022/06/16 01:53:40;;;;;;;;;;;28.80;38.10;;;;;;5102071;28;1781;-39
2022/06/16 01:56:10;;;;;;;;;;;28.80;38.10;;;;;;5101191;28;1346;-38
2022/06/16 01:58:40;;;;;;;;;;;28.80;38.20;;;;;;5101706;28;1976;-38
2022/06/16 02:01:11;;;;;;;;;;;28.80;38.10;;;;;;5101112;28;1024;-38
2022/06/16 02:03:39;;;;;;;;;;;28.80;38.10;;;;;;5100909;28;1044;-38
2022/06/16 02:06:09;;;;;;;;;;;28.80;38.20;;;;;;5100228;28;943;-38
2022/06/16 02:08:39;;;;;;;;;;;28.80;38.20;;;;;;5100963;28;947;-38
2022/06/16 02:11:11;;;;;;;;;;;28.70;38.10;;;;;;5100966;28;973;-38
2022/06/16 02:13:40;;;;;;;;;;;28.70;38.10;;;;;;5101350;28;924;-38
2022/06/16 02:16:11;;;;;;;;;;;28.70;38.20;;;;;;5100770;28;996;-38
2022/06/16 02:18:40;;;;;;;;;;;28.70;38.20;;;;;;5100517;28;1980;-38
2022/06/16 02:21:11;;;;;;;;;;;28.70;38.20;;;;;;5100382;28;949;-38
2022/06/16 02:23:38;;;;;;;;;;;28.70;38.20;;;;;;5100493;28;1005;-38
2022/06/16 02:26:05;;;;;;;;;;;28.70;38.20;;;;;;5099864;28;964;-38
2022/06/16 02:28:41;;;;;;;;;;;28.70;39.50;;;;;;5100978;28;955;-38
2022/06/16 02:31:16;;;;;;;;;;;28.70;38.20;;;;;;5098767;28;1031;-38
2022/06/16 02:33:48;;;;;;;;;;;28.70;38.20;;;;;;5100706;28;1104;-38
2022/06/16 02:36:20;;;;;;;;;;;28.70;38.30;;;;;;5099780;28;989;-38
2022/06/16 02:38:50;;;;;;;;;;;28.70;38.30;;;;;;5100357;28;1894;-38
2022/06/16 02:41:20;;;;;;;;;;;28.70;38.30;;;;;;5100309;28;987;-38
2022/06/16 02:43:50;;;;;;;;;;;28.70;38.30;;;;;;5100687;28;944;-38
2022/06/16 02:46:25;;;;;;;;;;;28.70;38.30;;;;;;5100362;28;976;-38
2022/06/16 02:48:53;;;;;;;;;;;28.70;38.40;;;;;;5099999;28;928;-38
2022/06/16 02:51:24;;;;;;;;;;;28.70;38.30;;;;;;5100307;28;872;-38
2022/06/16 02:53:56;;;;;;;;;;;28.70;38.30;;;;;;5100529;28;968;-37
2022/06/16 02:56:26;;;;;;;;;;;28.70;38.40;;;;;;5099276;28;1137;-37
2022/06/16 02:58:55;;;;;;;;;;;28.70;38.20;;;;;;5098807;28;1984;-37
2022/06/16 03:01:23;;;;;;;;;;;28.70;38.30;;;;;;5099228;28;1008;-38
2022/06/16 03:04:02;;;;;;;;;;;28.70;38.40;;;;;;5099478;28;923;-37
2022/06/16 03:06:29;;;;;;;;;;;28.70;38.40;;;;;;5099327;28;996;-37
2022/06/16 03:08:57;;;;;;;;;;;28.70;38.30;;;;;;5099298;28;987;-37
2022/06/16 03:11:24;;;;;;;;;;;28.70;38.40;;;;;;5099549;28;976;-37
2022/06/16 03:13:50;;;;;;;;;;;28.70;38.40;;;;;;5099556;28;1042;-37
2022/06/16 03:16:17;;;;;;;;;;;28.70;38.40;;;;;;5098399;28;995;-38
2022/06/16 03:18:46;;;;;;;;;;;28.70;38.20;;;;;;5098252;28;1910;-37
2022/06/16 03:21:13;;;;;;;;;;;28.80;38.30;;;;;;5098554;28;1003;-38
2022/06/16 03:23:39;;;;;;;;;;;28.80;38.30;;;;;;5099028;28;1005;-38
2022/06/16 03:26:06;;;;;;;;;;;28.70;38.30;;;;;;5098407;28;945;-38
2022/06/16 03:28:33;;;;;;;;;;;28.70;38.30;;;;;;5098446;28;1119;-38
2022/06/16 03:31:00;;;;;;;;;;;28.70;38.30;;;;;;5098383;28;995;-38
2022/06/16 03:33:27;;;;;;;;;;;28.70;38.30;;;;;;5098295;28;1051;-38
2022/06/16 03:35:56;;;;;;;;;;;28.70;38.30;;;;;;5098734;28;1005;-38
2022/06/16 03:38:25;;;;;;;;;;;28.70;38.50;;;;;;5098005;28;1913;-38
2022/06/16 03:40:52;;;;;;;;;;;28.70;38.40;;;;;;5098636;28;972;-38
2022/06/16 03:43:18;;;;;;;;;;;28.70;38.40;;;;;;5098925;28;994;-38
2022/06/16 03:45:45;;;;;;;;;;;28.70;38.50;;;;;;5098384;28;972;-38
2022/06/16 03:48:12;;;;;;;;;;;28.70;38.40;;;;;;5098619;28;960;-39
2022/06/16 03:50:39;;;;;;;;;;;28.70;38.50;;;;;;5098529;28;1000;-39
2022/06/16 03:53:07;;;;;;;;;;;28.70;38.40;;;;;;5098258;28;976;-38
2022/06/16 03:55:34;;;;;;;;;;;28.70;38.50;;;;;;5098294;28;854;-39
2022/06/16 03:58:01;;;;;;;;;;;28.70;38.40;;;;;;5098264;28;1977;-39
2022/06/16 04:00:29;;;;;;;;;;;28.70;38.40;;;;;;5097851;28;908;-39
2022/06/16 04:05:37;;;;;;;;;;;28.70;38.40;;;;;;5098695;28;998;-39
2022/06/16 04:08:03;;;;;;;;;;;28.70;38.50;;;;;;5099357;28;1015;-38
2022/06/16 04:10:32;;;;;;;;;;;28.60;38.50;;;;;;5098753;28;972;-39
2022/06/16 04:12:58;;;;;;;;;;;28.70;38.50;;;;;;5099390;28;977;-38
2022/06/16 04:15:25;;;;;;;;;;;28.70;38.40;;;;;;5098887;28;969;-39
2022/06/16 04:17:52;;;;;;;;;;;28.70;38.30;;;;;;5098756;28;1898;-38
2022/06/16 04:20:19;;;;;;;;;;;28.70;38.40;;;;;;5098509;28;980;-38
2022/06/16 04:22:45;;;;;;;;;;;28.70;38.40;;;;;;5098707;28;1019;-38
2022/06/16 04:25:14;;;;;;;;;;;28.70;38.40;;;;;;5097430;28;1003;-38
2022/06/16 04:27:43;;;;;;;;;;;28.70;38.40;;;;;;5096362;28;1008;-38
2022/06/16 04:30:10;;;;;;;;;;;28.70;38.40;;;;;;5097223;28;924;-38
2022/06/16 04:32:37;;;;;;;;;;;28.70;38.40;;;;;;5096855;28;1041;-38
2022/06/16 04:35:04;;;;;;;;;;;28.70;38.50;;;;;;5097253;28;944;-38
2022/06/16 04:37:31;;;;;;;;;;;28.70;38.40;;;;;;5097022;28;968;-38
2022/06/16 04:39:57;;;;;;;;;;;28.70;38.40;;;;;;5095405;28;1968;-38
2022/06/16 04:42:24;;;;;;;;;;;28.70;38.40;;;;;;5097168;28;987;-38
2022/06/16 04:44:52;;;;;;;;;;;28.70;38.50;;;;;;5097658;28;1004;-38
2022/06/16 04:47:19;;;;;;;;;;;28.70;38.40;;;;;;5096866;28;1019;-38
2022/06/16 04:49:48;;;;;;;;;;;28.70;38.40;;;;;;5099646;28;983;-38
2022/06/16 04:52:15;;;;;;;;;;;28.70;38.50;;;;;;5100218;28;972;-38
2022/06/16 04:54:44;;;;;;;;;;;28.70;38.40;;;;;;5100630;28;847;-38
2022/06/16 04:57:10;;;;;;;;;;;28.70;38.40;;;;;;5099715;28;1007;-38
2022/06/16 04:59:37;;;;;;;;;;;28.70;38.50;;;;;;5100141;28;1965;-38
2022/06/16 05:02:06;;;;;;;;;;;28.70;38.30;;;;;;5099811;28;1015;-38
2022/06/16 05:04:33;;;;;;;;;;;28.80;38.40;;;;;;5101136;28;955;-38
2022/06/16 05:07:01;;;;;;;;;;;28.70;38.40;;;;;;5101383;28;988;-38
2022/06/16 05:09:28;;;;;;;;;;;28.70;38.30;;;;;;5101052;28;932;-38
2022/06/16 05:11:54;;;;;;;;;;;28.70;38.40;;;;;;5100452;28;1045;-38
2022/06/16 05:14:21;;;;;;;;;;;28.80;38.50;;;;;;5100498;28;948;-38
2022/06/16 05:16:48;;;;;;;;;;;28.80;38.40;;;;;;5100927;28;1051;-39
2022/06/16 05:19:17;;;;;;;;;;;28.70;38.40;;;;;;5099804;28;1902;-39
2022/06/16 05:21:44;;;;;;;;;;;28.70;38.40;;;;;;5099730;28;995;-39
2022/06/16 05:24:11;;;;;;;;;;;28.70;38.50;;;;;;5100422;28;1019;-39
2022/06/16 05:26:37;;;;;;;;;;;28.70;38.30;;;;;;5101180;28;936;-41
2022/06/16 05:29:04;;;;;;;;;;;28.80;38.40;;;;;;5101785;28;1004;-39
2022/06/16 05:31:31;;;;;;;;;;;28.80;38.40;;;;;;5100592;28;1200;-39
2022/06/16 05:33:57;;;;;;;;;;;28.80;38.40;;;;;;5100596;28;961;-39
2022/06/16 05:36:25;;;;;;;;;;;28.80;38.40;;;;;;5100875;28;920;-39
2022/06/16 05:38:52;;;;;;;;;;;28.70;38.40;;;;;;5100870;28;1905;-39
2022/06/16 05:41:19;;;;;;;;;;;28.70;38.40;;;;;;5100659;28;1020;-39
2022/06/16 05:43:46;;;;;;;;;;;28.80;38.60;;;;;;5100650;28;1072;-38
2022/06/16 05:46:16;;;;;;;;;;;28.70;38.30;;;;;;5101194;28;920;-38
2022/06/16 05:48:43;;;;;;;;;;;28.80;38.50;;;;;;5100522;28;1102;-39
2022/06/16 05:51:11;;;;;;;;;;;28.70;38.40;;;;;;5101746;28;970;-39
2022/06/16 05:53:40;;;;;;;;;;;28.70;38.50;;;;;;5099927;28;1142;-39
2022/06/16 05:56:07;;;;;;;;;;;28.70;38.40;;;;;;5099945;28;1000;-40
2022/06/16 05:58:33;;;;;;;;;;;28.70;38.40;;;;;;5100011;28;1905;-39
2022/06/16 06:01:00;;;;;;;;;;;28.80;38.40;;;;;;5098109;28;923;-38
2022/06/16 06:03:28;;;;;;;;;;;28.70;38.40;;;;;;5099479;28;1764;-39
2022/06/16 06:05:55;;;;;;;;;;;28.80;38.50;;;;;;5099683;28;1068;-39
2022/06/16 06:16:38;;;;;;;;;;;28.70;38.50;;;;;;5098484;28;900;-39
2022/06/16 06:19:23;;;;;;;;;;;28.70;38.60;;;;;;5099321;28;1897;-39
2022/06/16 06:22:00;;;;;;;;;;;28.80;38.60;;;;;;5098460;28;999;-39
2022/06/16 06:24:28;;;;;;;;;;;28.80;38.70;;;;;;5100185;28;1004;-39
2022/06/16 06:26:56;;;;;;;;;;;28.70;38.50;;;;;;5099515;28;1023;-39
2022/06/16 06:29:23;;;;;;;;;;;28.70;38.50;;;;;;5100300;28;968;-39
2022/06/16 06:31:50;;;;;;;;;;;28.70;38.50;;;;;;5100009;28;991;-39
2022/06/16 06:34:16;;;;;;;;;;;28.70;38.60;;;;;;5099893;28;960;-39
2022/06/16 06:36:43;;;;;;;;;;;28.80;38.70;;;;;;5099746;28;1027;-38
2022/06/16 06:39:11;;;;;;;;;;;28.70;38.50;;;;;;5099550;28;1900;-38
2022/06/16 06:41:38;;;;;;;;;;;28.80;38.60;;;;;;5099353;28;1003;-38
2022/06/16 06:44:06;;;;;;;;;;;28.80;38.70;;;;;;5099325;28;1020;-38
2022/06/16 06:46:33;;;;;;;;;;;28.80;38.70;;;;;;5099585;28;1007;-38
2022/06/16 06:49:00;;;;;;;;;;;28.90;38.80;;;;;;5098440;28;1000;-38
2022/06/16 06:51:27;;;;;;;;;;;28.80;38.50;;;;;;5099009;28;976;-38
2022/06/16 06:53:53;;;;;;;;;;;28.80;38.50;;;;;;5099314;28;1020;-38
2022/06/16 06:56:20;;;;;;;;;;;28.80;38.60;;;;;;5099467;28;1090;-38
2022/06/16 06:58:47;;;;;;;;;;;28.80;38.70;;;;;;5098461;28;1975;-38
2022/06/16 07:01:15;;;;;;;;;;;28.80;38.80;;;;;;5098027;28;971;-39
2022/06/16 07:03:42;;;;;;;;;;;28.90;38.90;;;;;;5099215;28;1246;-38
2022/06/16 07:06:09;;;;;;;;;;;28.90;38.30;;;;;;5098682;28;1050;-38
2022/06/16 07:08:35;;;;;;;;;;;29.00;37.90;;;;;;5098058;28;1015;-36
2022/06/16 07:11:02;;;;;;;;;;;29.10;37.10;;;;;;5098449;28;1012;-37
2022/06/16 07:13:29;;;;;;;;;;;29.20;36.90;;;;;;5096969;28;944;-37
2022/06/16 07:15:57;;;;;;;;;;;29.20;36.90;;;;;;5097339;28;944;-38
2022/06/16 07:18:25;;;;;;;;;;;29.30;36.60;;;;;;5096318;28;1973;-38
2022/06/16 07:20:52;;;;;;;;;;;29.40;35.80;;;;;;5096624;28;969;-38
2022/06/16 07:23:19;;;;;;;;;;;29.40;35.40;;;;;;5096829;28;964;-38
2022/06/16 07:25:46;;;;;;;;;;;29.30;35.80;;;;;;5096835;28;968;-38
2022/06/16 07:28:13;;;;;;;;;;;29.40;35.00;;;;;;5097657;28;946;-37
2022/06/16 07:30:40;;;;;;;;;;;29.40;34.70;;;;;;5097063;28;1012;-38
2022/06/16 07:33:07;;;;;;;;;;;29.30;34.70;;;;;;5098331;28;1051;-38
2022/06/16 07:35:36;;;;;;;;;;;29.30;34.00;;;;;;5097999;28;1010;-38
2022/06/16 07:38:03;;;;;;;;;;;29.30;34.20;;;;;;5097964;28;1033;-38
2022/06/16 07:40:30;;;;;;;;;;;29.20;34.30;;;;;;5097653;28;1959;-38
2022/06/16 07:42:57;;;;;;;;;;;29.30;33.90;;;;;;5097703;28;1032;-38
2022/06/16 07:45:24;;;;;;;;;;;29.30;33.60;;;;;;5098575;28;1019;-38
2022/06/16 07:47:51;;;;;;;;;;;29.30;33.60;;;;;;5098606;28;944;-38
2022/06/16 07:50:18;;;;;;;;;;;29.30;33.50;;;;;;5096690;28;1004;-38
2022/06/16 07:52:46;;;;;;;;;;;29.30;33.30;;;;;;5097384;28;1063;-38
2022/06/16 07:55:14;;;;;;;;;;;29.30;33.60;;;;;;5096470;28;959;-38
2022/06/16 07:57:42;;;;;;;;;;;29.30;33.50;;;;;;5096503;28;980;-38
2022/06/16 08:00:09;;;;;;;;;;;29.30;33.40;;;;;;5096082;28;1918;-38
2022/06/16 08:02:35;;;;;;;;;;;29.20;33.80;;;;;;5097150;28;993;-38
2022/06/16 08:05:02;;;;;;;;;;;29.20;33.70;;;;;;5097236;28;920;-38
2022/06/16 08:07:29;;;;;;;;;;;29.20;33.50;;;;;;5097092;28;913;-38
2022/06/16 08:09:57;;;;;;;;;;;29.20;33.20;;;;;;5097008;28;940;-38
2022/06/16 08:12:24;;;;;;;;;;;29.20;33.10;;;;;;5095978;28;1010;-38
2022/06/16 08:14:51;;;;;;;;;;;29.20;32.90;;;;;;5095296;28;781;-39
2022/06/16 08:17:20;;;;;;;;;;;29.20;33.10;;;;;;5094914;28;991;-38
2022/06/16 08:19:47;;;;;;;;;;;29.20;32.80;;;;;;5095309;28;1966;-40
2022/06/16 08:22:13;;;;;;;;;;;29.20;32.90;;;;;;5094443;28;916;-38
2022/06/16 08:24:40;;;;;;;;;;;29.10;33.50;;;;;;5094037;28;1003;-38
2022/06/16 08:27:09;;;;;;;;;;;29.20;33.00;;;;;;5094766;28;964;-38
2022/06/16 08:29:37;;;;;;;;;;;29.20;33.00;;;;;;5093703;28;960;-38
2022/06/16 08:32:04;;;;;;;;;;;29.20;33.10;;;;;;5093766;28;1074;-38
2022/06/16 08:34:32;;;;;;;;;;;29.20;33.50;;;;;;5093751;28;993;-36
2022/06/16 08:36:59;;;;;;;;;;;29.00;33.90;;;;;;5095119;28;1042;-38
2022/06/16 08:39:25;;;;;;;;;;;29.10;33.70;;;;;;5096251;28;1893;-38
2022/06/16 08:41:56;;;;;;;;;;;29.10;34.60;;;;;;5097132;28;984;-36
2022/06/16 08:44:26;;;;;;;;;;;29.10;33.40;;;;;;5096690;28;939;-38
2022/06/16 08:46:57;;;;;;;;;;;29.10;33.40;;;;;;5096350;28;932;-37
2022/06/16 08:49:28;;;;;;;;;;;29.10;32.60;;;;;;5096752;28;1038;-38
2022/06/16 08:52:03;;;;;;;;;;;29.00;34.20;;;;;;5096916;28;992;-36
2022/06/16 08:54:47;;;;;;;;;;;29.00;33.30;;;;;;5096808;28;956;-40
2022/06/16 08:57:16;;;;;;;;;;;29.10;33.00;;;;;;5092811;28;1010;-37
2022/06/16 08:59:50;;;;;;;;;;;29.10;33.00;;;;;;5091339;28;1898;-36
2022/06/16 09:02:19;;;;;;;;;;;29.00;33.40;;;;;;5093206;28;1011;-36
2022/06/16 09:04:50;;;;;;;;;;;28.90;32.20;;;;;;5093375;28;987;-37
2022/06/16 09:07:23;;;;;;;;;;;28.90;31.70;;;;;;5093549;28;988;-38
2022/06/16 09:12:49;;;;;;;;;;;28.80;31.70;;;;;;5093884;28;900;-37
2022/06/16 09:15:25;;;;;;;;;;;28.80;31.90;;;;;;5094442;28;899;-39
2022/06/16 09:17:58;;;;;;;;;;;28.90;32.20;;;;;;5093817;28;924;-38
2022/06/16 09:20:30;;;;;;;;;;;28.90;32.70;;;;;;5090704;28;1910;-38
2022/06/16 09:23:03;;;;;;;;;;;28.80;32.60;;;;;;5073065;28;1060;-39
2022/06/16 09:25:39;;;;;;;;;;;28.80;32.80;;;;;;5073042;28;937;-38
2022/06/16 09:28:08;;;;;;;;;;;28.90;32.00;;;;;;5071802;28;1003;-38
2022/06/16 09:30:38;;;;;;;;;;;28.90;32.30;;;;;;5072381;28;857;-39
2022/06/16 09:33:07;;;;;;;;;;;28.80;32.40;;;;;;5074346;28;1295;-39
2022/06/16 09:35:36;;;;;;;;;;;28.80;32.80;;;;;;5075668;28;980;-38
2022/06/16 09:38:08;;;;;;;;;;;28.70;32.60;;;;;;5078993;28;979;-39
2022/06/16 09:40:36;;;;;;;;;;;28.90;32.20;;;;;;5078933;28;1984;-38
2022/06/16 09:43:07;;;;;;;;;;;28.80;32.40;;;;;;5078639;28;1801;-38
2022/06/16 09:45:36;;;;;;;;;;;28.80;32.80;;;;;;5078330;28;924;-39
2022/06/16 09:48:07;;;;;;;;;;;28.80;33.00;;;;;;5079172;28;1033;-38
2022/06/16 09:50:38;;;;;;;;;;;28.80;32.90;;;;;;5079880;28;1038;-42
2022/06/16 09:53:09;;;;;;;;;;;28.80;33.00;;;;;;5070397;28;952;-38
2022/06/16 09:55:37;;;;;;;;;;;28.90;32.60;;;;;;5078146;28;968;-38
2022/06/16 09:58:08;;;;;;;;;;;29.00;32.30;;;;;;5078150;28;1030;-38
2022/06/16 10:00:35;;;;;;;;;;;29.00;31.90;;;;;;5077324;28;1887;-39
2022/06/16 10:03:10;;;;;;;;;;;29.00;31.10;;;;;;5078232;28;984;-38
2022/06/16 10:05:39;;;;;;;;;;;29.00;30.90;;;;;;5078000;28;975;-38
2022/06/16 10:08:11;;;;;;;;;;;28.90;31.20;;;;;;5077487;28;1008;-36
2022/06/16 10:10:41;;;;;;;;;;;28.90;31.30;;;;;;5077119;28;1015;-38
2022/06/16 10:13:14;;;;;;;;;;;28.80;31.60;;;;;;5076942;28;1024;-38
2022/06/16 10:15:43;;;;;;;;;;;28.60;32.00;;;;;;5076546;28;1027;-38
2022/06/16 10:18:11;;;;;;;;;;;28.60;32.50;;;;;;5077565;28;988;-38
2022/06/16 10:20:39;;;;;;;;;;;28.60;32.60;;;;;;5076989;28;1897;-36
2022/06/16 10:23:09;;;;;;;;;;;28.70;32.40;;;;;;5077819;28;932;-37
2022/06/16 10:25:37;;;;;;;;;;;28.80;32.30;;;;;;5076183;28;946;-38
2022/06/16 10:28:17;;;;;;;;;;;28.90;32.00;;;;;;5076310;28;1011;-37
2022/06/16 10:30:44;;;;;;;;;;;28.90;32.00;;;;;;5076302;28;944;-37
2022/06/16 10:33:12;;;;;;;;;;;29.00;31.10;;;;;;5076431;28;1047;-38
2022/06/16 10:35:44;;;;;;;;;;;28.90;31.40;;;;;;5075037;28;991;-46
2022/06/16 10:38:11;;;;;;;;;;;28.70;31.70;;;;;;5075683;28;923;-47
2022/06/16 10:40:39;;;;;;;;;;;28.60;32.10;;;;;;5075948;28;1982;-46
2022/06/16 10:43:09;;;;;;;;;;;28.60;32.00;;;;;;5075942;28;949;-48
2022/06/16 10:45:36;;;;;;;;;;;28.60;32.10;;;;;;5075501;28;968;-46
2022/06/16 10:48:05;;;;;;;;;;;28.60;32.20;;;;;;5075493;28;2126;-48
2022/06/16 10:50:34;;;;;;;;;;;28.70;32.00;;;;;;5082570;28;955;-47
2022/06/16 10:53:04;;;;;;;;;;;28.70;31.40;;;;;;5081578;28;1007;-47
2022/06/16 10:55:36;;;;;;;;;;;28.80;31.20;;;;;;5081309;28;864;-47
2022/06/16 10:58:19;;;;;;;;;;;28.90;31.40;;;;;;5079829;28;1032;-47
2022/06/16 11:00:59;;;;;;;;;;;28.90;31.50;;;;;;5078186;28;1909;-47
2022/06/16 11:03:26;;;;;;;;;;;28.90;31.30;;;;;;5077470;28;968;-48
2022/06/16 11:05:55;;;;;;;;;;;29.00;31.10;;;;;;5076108;28;927;-46
2022/06/16 11:08:24;;;;;;;;;;;29.10;31.20;;;;;;5076928;28;978;-47
2022/06/16 11:10:52;;;;;;;;;;;29.10;31.10;;;;;;5076237;28;944;-46
2022/06/16 11:13:22;;;;;;;;;;;29.10;31.10;;;;;;5076587;28;936;-46
2022/06/16 11:15:50;;;;;;;;;;;29.20;31.00;;;;;;5075847;28;1036;-46
2022/06/16 11:18:19;;;;;;;;;;;29.20;31.00;;;;;;5077543;28;940;-49
2022/06/16 11:20:48;;;;;;;;;;;29.20;30.80;;;;;;5077237;28;1973;-47
2022/06/16 11:23:20;;;;;;;;;;;29.30;30.80;;;;;;5076272;28;991;-47
2022/06/16 11:25:49;;;;;;;;;;;29.30;30.40;;;;;;5074443;28;936;-46
2022/06/16 11:28:20;;;;;;;;;;;29.30;30.00;;;;;;5074841;28;981;-46
2022/06/16 11:30:54;;;;;;;;;;;29.30;29.70;;;;;;5075205;28;861;-46
2022/06/16 11:34:06;;;;;;;;;;;29.40;30.50;;;;;;5074694;28;1314;-45
2022/06/16 11:36:12;;;;;;;;;;;29.40;29.40;;;;;;5074821;28;1416;-46
2022/06/16 11:38:43;;;;;;;;;;;29.40;29.60;;;;;;5075709;28;989;-47
2022/06/16 11:41:13;;;;;;;;;;;29.40;29.70;;;;;;5073575;28;1913;-44
2022/06/16 11:43:52;;;;;;;;;;;29.40;29.30;;;;;;5074308;28;1112;-44
2022/06/16 11:46:21;;;;;;;;;;;29.40;29.40;;;;;;5076117;28;993;-45
2022/06/16 11:48:59;;;;;;;;;;;29.40;29.70;;;;;;5075431;28;951;-44
2022/06/16 11:51:28;;;;;;;;;;;29.50;29.40;;;;;;5075669;28;1019;-45
2022/06/16 11:54:01;;;;;;;;;;;29.50;29.50;;;;;;5077275;28;912;-44
2022/06/16 11:56:34;;;;;;;;;;;29.50;29.50;;;;;;5075966;28;1015;-44
2022/06/16 11:59:07;;;;;;;;;;;29.50;29.30;;;;;;5074176;28;975;-45
2022/06/16 12:01:38;;;;;;;;;;;29.50;29.10;;;;;;5076769;28;1979;-45
2022/06/16 12:04:23;;;;;;;;;;;29.60;29.20;;;;;;5076723;28;955;-44
2022/06/16 12:07:03;;;;;;;;;;;29.60;29.20;;;;;;5076174;28;939;-44
2022/06/16 12:09:34;;;;;;;;;;;29.60;29.20;;;;;;5075485;28;972;-43
2022/06/16 12:12:06;;;;;;;;;;;29.60;29.50;;;;;;5076667;28;925;-47
2022/06/16 12:14:38;;;;;;;;;;;29.60;29.40;;;;;;5076617;28;932;-45
2022/06/16 12:17:15;;;;;;;;;;;29.60;29.30;;;;;;5075911;28;980;-44
2022/06/16 12:19:45;;;;;;;;;;;29.60;29.30;;;;;;5076078;28;976;-47
2022/06/16 12:22:15;;;;;;;;;;;29.60;29.20;;;;;;5076706;28;1906;-44
2022/06/16 12:24:47;;;;;;;;;;;29.70;29.30;;;;;;5075565;28;1020;-43
2022/06/16 12:27:17;;;;;;;;;;;29.70;29.30;;;;;;5076175;28;957;-44
2022/06/16 12:29:50;;;;;;;;;;;29.60;29.70;;;;;;5075347;28;960;-45
2022/06/16 12:32:24;;;;;;;;;;;29.70;31.00;;;;;;5074606;28;1113;-46
2022/06/16 12:34:58;;;;;;;;;;;29.70;29.80;;;;;;5072701;28;945;-45
2022/06/16 12:37:27;;;;;;;;;;;29.70;29.80;;;;;;5073152;28;945;-43
2022/06/16 12:39:56;;;;;;;;;;;29.70;29.80;;;;;;5074434;28;1047;-43
2022/06/16 12:42:27;;;;;;;;;;;29.70;29.50;;;;;;5073890;28;1976;-43
2022/06/16 12:44:55;;;;;;;;;;;29.70;29.70;;;;;;5072911;28;1524;-44
2022/06/16 12:47:24;;;;;;;;;;;29.80;29.70;;;;;;5073907;28;933;-44
2022/06/16 12:49:53;;;;;;;;;;;29.70;29.80;;;;;;5073723;28;1028;-42
2022/06/16 12:52:22;;;;;;;;;;;29.80;29.90;;;;;;5072061;28;1028;-43
2022/06/16 12:54:51;;;;;;;;;;;29.70;29.90;;;;;;5076994;28;935;-44
2022/06/16 12:57:19;;;;;;;;;;;29.70;29.90;;;;;;5076044;28;941;-44
2022/06/16 12:59:51;;;;;;;;;;;29.70;30.00;;;;;;5075909;28;1043;-44
2022/06/16 13:02:19;;;;;;;;;;;29.70;29.80;;;;;;5073051;28;2048;-42
2022/06/16 13:04:46;;;;;;;;;;;29.70;29.80;;;;;;5072804;28;1021;-43
2022/06/16 13:07:15;;;;;;;;;;;29.70;29.90;;;;;;5073366;28;1092;-42
2022/06/16 13:09:42;;;;;;;;;;;29.70;29.80;;;;;;5072893;28;965;-42
2022/06/16 13:12:14;;;;;;;;;;;29.70;30.00;;;;;;5076236;28;1013;-44
2022/06/16 13:14:48;;;;;;;;;;;29.70;29.90;;;;;;5077881;28;997;-44
2022/06/16 13:17:16;;;;;;;;;;;29.70;30.00;;;;;;5079254;28;1006;-43
2022/06/16 13:19:46;;;;;;;;;;;29.70;30.00;;;;;;5078658;28;995;-44
2022/06/16 13:22:20;;;;;;;;;;;29.70;29.90;;;;;;5077468;28;1984;-44
2022/06/16 13:24:52;;;;;;;;;;;29.80;29.90;;;;;;5078044;28;948;-43
2022/06/16 13:27:24;;;;;;;;;;;29.80;29.80;;;;;;5078305;28;939;-44
2022/06/16 13:30:00;;;;;;;;;;;29.70;29.80;;;;;;5078886;28;928;-44
2022/06/16 13:32:36;;;;;;;;;;;29.70;29.90;;;;;;5078715;28;977;-44
2022/06/16 13:35:27;;;;;;;;;;;29.80;29.90;;;;;;5079110;28;937;-44
2022/06/16 13:38:09;;;;;;;;;;;29.80;30.00;;;;;;5079460;28;1003;-46
2022/06/16 13:40:36;;;;;;;;;;;29.70;30.00;;;;;;5080150;28;1902;-45
2022/06/16 13:43:11;;;;;;;;;;;29.60;30.10;;;;;;5079246;28;904;-47
2022/06/16 13:45:40;;;;;;;;;;;29.60;30.30;;;;;;5079212;28;953;-45
2022/06/16 13:48:19;;;;;;;;;;;29.60;30.40;;;;;;5078068;28;1003;-45
2022/06/16 13:50:47;;;;;;;;;;;29.60;30.40;;;;;;5076675;28;988;-44
2022/06/16 13:53:15;;;;;;;;;;;29.50;30.40;;;;;;5077320;28;936;-45
2022/06/16 13:55:43;;;;;;;;;;;29.60;30.40;;;;;;5076070;28;999;-45
2022/06/16 13:58:21;;;;;;;;;;;29.60;30.10;;;;;;5075553;28;1719;-44
2022/06/16 14:01:02;;;;;;;;;;;29.60;30.30;;;;;;5075335;28;1971;-45
2022/06/16 14:03:31;;;;;;;;;;;29.50;30.10;;;;;;5076296;28;1012;-45
2022/06/16 14:06:04;;;;;;;;;;;29.60;30.10;;;;;;5075956;28;937;-45
2022/06/16 14:08:31;;;;;;;;;;;29.60;30.00;;;;;;5076037;28;928;-46
2022/06/16 14:11:12;;;;;;;;;;;29.70;30.00;;;;;;5075708;28;904;-46
2022/06/16 14:13:41;;;;;;;;;;;29.70;30.00;;;;;;5075360;28;1613;-45
2022/06/16 14:16:18;;;;;;;;;;;29.70;30.00;;;;;;5075006;28;849;-45
2022/06/16 14:18:54;;;;;;;;;;;29.70;30.00;;;;;;5077209;28;1026;-47
2022/06/16 14:21:24;;;;;;;;;;;29.70;30.00;;;;;;5076586;28;1895;-47
2022/06/16 14:23:55;;;;;;;;;;;29.70;29.90;;;;;;5077288;28;1007;-46
2022/06/16 14:26:25;;;;;;;;;;;29.70;29.80;;;;;;5077589;28;977;-46
2022/06/16 14:28:52;;;;;;;;;;;29.70;29.60;;;;;;5076799;28;925;-46
2022/06/16 14:31:23;;;;;;;;;;;29.70;29.60;;;;;;5077156;28;972;-46
2022/06/16 14:33:52;;;;;;;;;;;29.60;29.70;;;;;;5076772;28;995;-46
2022/06/16 14:36:23;;;;;;;;;;;29.70;29.60;;;;;;5077796;28;925;-47
2022/06/16 14:38:52;;;;;;;;;;;29.60;29.60;;;;;;5077791;28;869;-46
2022/06/16 14:41:21;;;;;;;;;;;29.70;29.60;;;;;;5076993;28;1906;-46
2022/06/16 14:43:52;;;;;;;;;;;29.70;29.70;;;;;;5077230;28;972;-47
2022/06/16 14:46:23;;;;;;;;;;;29.70;30.60;;;;;;5078164;28;976;-47
2022/06/16 14:48:54;;;;;;;;;;;29.70;29.80;;;;;;5078127;28;1000;-48
2022/06/16 14:51:26;;;;;;;;;;;29.70;29.80;;;;;;5077128;28;1011;-43
2022/06/16 14:53:57;;;;;;;;;;;29.70;29.80;;;;;;5075233;28;1783;-46
2022/06/16 14:56:23;;;;;;;;;;;29.70;29.60;;;;;;5076077;28;1035;-45
2022/06/16 14:58:51;;;;;;;;;;;29.70;30.00;;;;;;5075607;28;1014;-44
2022/06/16 15:01:20;;;;;;;;;;;29.70;30.00;;;;;;5075907;28;1985;-43
2022/06/16 15:03:48;;;;;;;;;;;29.80;30.00;;;;;;5076752;28;1010;-45
2022/06/16 15:06:16;;;;;;;;;;;29.80;30.00;;;;;;5076278;28;979;-46
2022/06/16 15:08:46;;;;;;;;;;;29.80;29.90;;;;;;5076978;28;913;-45